createdAt,value
2022-09-23T00:01:52.200Z,8.26
2022-09-23T00:04:23.482Z,8.23
2022-09-23T00:06:54.721Z,8.21
2022-09-23T00:09:25.765Z,8.20
2022-09-23T00:11:53.592Z,8.20
2022-09-23T00:14:25.015Z,8.22
2022-09-23T00:16:52.853Z,8.20
2022-09-23T00:19:23.931Z,8.19
2022-09-23T00:21:53.363Z,8.20
2022-09-23T00:24:21.260Z,8.21
2022-09-23T00:26:51.097Z,8.23
2022-09-23T00:29:19.715Z,8.24
2022-09-23T00:31:51.142Z,8.21
2022-09-23T00:34:18.949Z,8.21
2022-09-23T00:36:46.657Z,8.23
2022-09-23T00:39:17.619Z,8.25
2022-09-23T00:41:45.581Z,8.26
2022-09-23T00:44:43.542Z,8.26
2022-09-23T00:47:31.687Z,8.24
2022-09-23T00:50:24.392Z,8.25
2022-09-23T00:52:57.460Z,8.28
2022-09-23T00:55:33.194Z,8.29
2022-09-23T00:58:07.871Z,8.29
2022-09-23T01:00:35.990Z,8.31
2022-09-23T01:03:07.247Z,8.34
2022-09-23T01:05:36.943Z,8.36
2022-09-23T01:08:09.132Z,8.38
2022-09-23T01:10:45.008Z,8.41
2022-09-23T01:13:38.067Z,8.42
2022-09-23T01:16:08.764Z,8.38
2022-09-23T01:18:56.360Z,8.38
2022-09-23T01:21:49.323Z,8.39
2022-09-23T01:24:41.797Z,8.40
2022-09-23T01:28:10.106Z,8.40
2022-09-23T01:30:40.711Z,8.39
2022-09-23T01:33:46.597Z,8.41
2022-09-23T01:36:37.804Z,8.43
2022-09-23T01:39:42.294Z,8.46
2022-09-23T01:42:36.883Z,8.47
2022-09-23T01:45:34.514Z,8.49
2022-09-23T01:48:25.637Z,8.51
2022-09-23T01:51:15.786Z,8.54
2022-09-23T01:53:52.455Z,8.55
2022-09-23T01:56:52.578Z,8.57
2022-09-23T01:59:45.237Z,8.58
2022-09-23T02:02:21.304Z,8.58
2022-09-23T02:04:59.595Z,8.56
2022-09-23T02:07:45.179Z,8.57
2022-09-23T02:10:25.185Z,8.59
2022-09-23T02:12:59.834Z,8.62
2022-09-23T02:15:44.976Z,8.63
2022-09-23T02:18:18.279Z,8.63
2022-09-23T02:20:50.560Z,8.63
2022-09-23T02:23:41.566Z,8.65
2022-09-23T02:26:19.766Z,8.66
2022-09-23T02:29:20.640Z,8.67
2022-09-23T02:32:15.701Z,8.66
2022-09-23T02:35:12.802Z,8.65
2022-09-23T02:38:19.940Z,8.66
2022-09-23T02:40:55.975Z,8.64
2022-09-23T02:43:36.156Z,8.65
2022-09-23T02:46:08.501Z,8.65
2022-09-23T02:48:43.753Z,8.62
2022-09-23T02:51:13.631Z,8.59
2022-09-23T02:53:41.992Z,8.57
2022-09-23T02:56:16.930Z,8.54
2022-09-23T02:58:47.869Z,8.52
2022-09-23T03:01:48.643Z,8.54
2022-09-23T03:04:48.174Z,8.55
2022-09-23T03:07:56.121Z,8.54
2022-09-23T03:10:31.891Z,8.53
2022-09-23T03:13:29.576Z,8.51
2022-09-23T03:16:24.299Z,8.51
2022-09-23T03:18:57.494Z,8.53
2022-09-23T03:21:41.188Z,8.54
2022-09-23T03:24:14.519Z,8.55
2022-09-23T03:26:48.982Z,8.55
2022-09-23T03:29:21.427Z,8.52
2022-09-23T03:31:49.875Z,8.51
2022-09-23T03:34:28.663Z,8.51
2022-09-23T03:37:10.991Z,8.53
2022-09-23T03:39:51.349Z,8.54
2022-09-23T03:42:24.156Z,8.55
2022-09-23T03:44:57.303Z,8.55
2022-09-23T03:47:27.827Z,8.55
2022-09-23T03:49:57.080Z,8.55
2022-09-23T03:52:29.566Z,8.58
2022-09-23T03:55:01.494Z,8.57
2022-09-23T03:57:29.546Z,8.54
2022-09-23T03:59:59.292Z,8.51
2022-09-23T04:02:28.060Z,8.51
2022-09-23T04:04:57.468Z,8.51
2022-09-23T04:07:25.841Z,8.51
2022-09-23T04:09:56.171Z,8.49
2022-09-23T04:12:25.212Z,8.47
2022-09-23T04:14:57.205Z,8.45
2022-09-23T04:17:24.833Z,8.45
2022-09-23T04:19:56.909Z,8.48
2022-09-23T04:22:25.067Z,8.49
2022-09-23T04:24:55.554Z,8.48
2022-09-23T04:27:25.729Z,8.48
2022-09-23T04:29:54.397Z,8.48
2022-09-23T04:32:26.221Z,8.49
2022-09-23T04:34:58.386Z,8.47
2022-09-23T04:37:33.662Z,8.47
2022-09-23T04:40:04.548Z,8.48
2022-09-23T04:42:33.195Z,8.48
2022-09-23T04:45:02.034Z,8.48
2022-09-23T04:47:35.956Z,8.47
2022-09-23T04:50:04.084Z,8.47
2022-09-23T04:52:31.979Z,8.45
2022-09-23T04:55:11.233Z,8.42
2022-09-23T04:57:39.769Z,8.42
2022-09-23T05:00:15.451Z,8.42
2022-09-23T05:02:48.317Z,8.44
2022-09-23T05:05:23.633Z,8.45
2022-09-23T05:07:52.469Z,8.45
2022-09-23T05:10:26.685Z,8.46
2022-09-23T05:12:57.265Z,8.46
2022-09-23T05:15:28.966Z,8.46
2022-09-23T05:17:59.982Z,8.45
2022-09-23T05:20:27.911Z,8.44
2022-09-23T05:22:55.595Z,8.45
2022-09-23T05:25:24.180Z,8.47
2022-09-23T05:27:52.960Z,8.49
2022-09-23T05:30:20.669Z,8.51
2022-09-23T05:32:48.918Z,8.53
2022-09-23T05:35:17.019Z,8.56
2022-09-23T05:37:45.076Z,8.59
2022-09-23T05:40:13.328Z,8.60
2022-09-23T05:42:42.001Z,8.62
2022-09-23T05:45:10.295Z,8.67
2022-09-23T05:47:38.556Z,8.69
2022-09-23T05:50:07.918Z,8.70
2022-09-23T05:52:35.610Z,8.70
2022-09-23T05:55:03.542Z,8.73
2022-09-23T05:57:31.593Z,8.75
2022-09-23T05:59:59.856Z,8.78
2022-09-23T06:02:27.640Z,8.78
2022-09-23T06:04:56.186Z,8.79
2022-09-23T06:07:24.702Z,8.80
2022-09-23T06:09:55.255Z,8.76
2022-09-23T06:12:25.646Z,8.75
2022-09-23T06:14:54.431Z,8.75
2022-09-23T06:17:24.045Z,8.78
2022-09-23T06:19:52.522Z,8.81
2022-09-23T06:22:20.194Z,8.82
2022-09-23T06:24:48.882Z,8.88
2022-09-23T06:27:17.307Z,8.89
2022-09-23T06:29:45.812Z,8.89
2022-09-23T06:32:13.562Z,8.87
2022-09-23T06:34:51.510Z,8.88
2022-09-23T06:37:20.838Z,8.92
2022-09-23T06:39:51.970Z,8.98
2022-09-23T06:42:19.951Z,9.02
2022-09-23T06:44:48.691Z,9.07
2022-09-23T06:47:17.266Z,9.13
2022-09-23T06:49:45.620Z,9.15
2022-09-23T06:52:13.624Z,9.17
2022-09-23T06:54:42.188Z,9.20
2022-09-23T06:57:10.816Z,9.21
2022-09-23T06:59:39.417Z,9.23
2022-09-23T07:02:10.817Z,9.28
2022-09-23T07:04:39.019Z,9.32
2022-09-23T07:07:06.759Z,9.36
2022-09-23T07:09:35.268Z,9.41
2022-09-23T07:12:03.305Z,9.46
2022-09-23T07:14:32.094Z,9.50
2022-09-23T07:17:00.434Z,9.55
2022-09-23T07:19:29.053Z,9.58
2022-09-23T07:21:57.646Z,9.63
2022-09-23T07:24:25.541Z,9.72
2022-09-23T07:26:56.062Z,9.80
2022-09-23T07:29:24.733Z,9.87
2022-09-23T07:31:53.518Z,9.91
2022-09-23T07:34:24.640Z,9.94
2022-09-23T07:36:54.870Z,9.93
2022-09-23T07:39:23.715Z,9.95
2022-09-23T07:41:52.357Z,9.98
2022-09-23T07:44:22.766Z,10.01
2022-09-23T07:46:51.622Z,10.03
2022-09-23T07:49:19.671Z,10.07
2022-09-23T07:51:49.132Z,10.12
2022-09-23T07:54:19.718Z,10.18
2022-09-23T07:56:48.739Z,10.24
2022-09-23T07:59:19.114Z,10.31
2022-09-23T08:01:50.818Z,10.34
2022-09-23T08:04:23.302Z,10.38
2022-09-23T08:07:01.648Z,10.44
2022-09-23T08:09:42.380Z,10.52
2022-09-23T08:12:18.337Z,10.60
2022-09-23T08:14:46.315Z,10.66
2022-09-23T08:17:15.197Z,10.74
2022-09-23T08:19:43.878Z,10.85
2022-09-23T08:22:13.143Z,10.95
2022-09-23T08:24:41.533Z,11.07
2022-09-23T08:27:13.042Z,11.13
2022-09-23T08:29:41.811Z,11.22
2022-09-23T08:32:10.592Z,11.28
2022-09-23T08:34:39.439Z,11.39
2022-09-23T08:37:11.455Z,11.52
2022-09-23T08:39:39.421Z,11.70
2022-09-23T08:42:22.840Z,12.10
2022-09-23T08:45:01.878Z,12.45
2022-09-23T08:47:53.040Z,12.75
2022-09-23T08:50:24.415Z,12.95
2022-09-23T08:53:02.518Z,13.06
2022-09-23T08:55:47.930Z,13.09
2022-09-23T08:58:44.651Z,13.19
2022-09-23T09:01:44.921Z,13.22
2022-09-23T09:04:23.184Z,13.45
2022-09-23T09:07:31.730Z,13.81
2022-09-23T09:10:00.487Z,13.97
2022-09-23T09:12:50.014Z,13.96
2022-09-23T09:15:26.716Z,13.95
2022-09-23T09:18:18.482Z,13.98
2022-09-23T09:20:57.550Z,14.17
2022-09-23T09:24:00.477Z,14.40
2022-09-23T09:26:35.994Z,14.73
2022-09-23T09:29:36.081Z,14.87
2022-09-23T09:32:25.162Z,15.29
2022-09-23T09:35:06.283Z,15.58
2022-09-23T09:37:43.182Z,15.80
2022-09-23T09:40:14.595Z,15.91
2022-09-23T09:42:49.174Z,15.86
2022-09-23T09:45:34.908Z,15.90
2022-09-23T09:48:18.179Z,15.92
2022-09-23T09:50:55.721Z,15.72
2022-09-23T09:53:30.467Z,15.60
2022-09-23T09:56:05.375Z,15.40
2022-09-23T09:58:50.869Z,15.28
2022-09-23T10:01:30.512Z,15.21
2022-09-23T10:04:04.644Z,15.06
2022-09-23T10:06:36.742Z,15.02
2022-09-23T10:09:07.421Z,14.93
2022-09-23T10:11:36.965Z,14.91
2022-09-23T10:14:19.301Z,14.98
2022-09-23T10:17:02.410Z,15.14
2022-09-23T10:19:35.583Z,15.29
2022-09-23T10:22:17.928Z,15.44
2022-09-23T10:24:53.982Z,15.47
2022-09-23T10:27:35.330Z,15.44
2022-09-23T10:30:23.558Z,15.43
2022-09-23T10:32:57.469Z,15.38
2022-09-23T10:35:28.443Z,15.31
2022-09-23T10:38:01.170Z,15.21
2022-09-23T10:40:53.790Z,15.15
2022-09-23T10:44:04.048Z,15.04
2022-09-23T10:46:38.920Z,14.85
2022-09-23T10:49:13.476Z,14.63
2022-09-23T10:52:10.053Z,14.25
2022-09-23T10:54:56.801Z,13.59
2022-09-23T10:57:43.581Z,13.10
2022-09-23T11:00:33.524Z,12.79
2022-09-23T11:03:25.287Z,12.53
2022-09-23T11:06:11.521Z,12.26
2022-09-23T11:08:54.501Z,12.12
2022-09-23T11:11:37.409Z,12.07
2022-09-23T11:14:30.679Z,12.03
2022-09-23T11:17:25.362Z,11.97
2022-09-23T11:20:06.423Z,11.94
2022-09-23T11:22:53.957Z,11.95
2022-09-23T11:25:45.812Z,11.98
2022-09-23T11:28:30.659Z,12.05
2022-09-23T11:31:21.437Z,12.15
2022-09-23T11:34:08.820Z,12.27
2022-09-23T11:36:53.174Z,12.42
2022-09-23T11:39:43.259Z,12.52
2022-09-23T11:42:37.001Z,12.65
2022-09-23T11:45:19.717Z,12.76
2022-09-23T11:48:12.656Z,12.94
2022-09-23T11:50:54.771Z,13.07
2022-09-23T11:53:38.928Z,13.14
2022-09-23T11:56:30.087Z,13.22
2022-09-23T11:59:36.989Z,13.27
2022-09-23T12:02:34.095Z,13.30
2022-09-23T12:05:15.981Z,13.31
2022-09-23T12:08:04.317Z,13.28
2022-09-23T12:11:10.800Z,13.21
2022-09-23T12:14:11.940Z,13.07
2022-09-23T12:17:16.406Z,12.93
2022-09-23T12:19:56.305Z,12.78
2022-09-23T12:22:53.692Z,12.67
2022-09-23T12:25:49.349Z,12.49
2022-09-23T12:28:33.754Z,12.32
2022-09-23T12:31:08.745Z,12.28
2022-09-23T12:33:39.509Z,12.26
2022-09-23T12:36:12.638Z,12.23
2022-09-23T12:38:53.985Z,12.24
2022-09-23T12:41:43.013Z,12.26
2022-09-23T12:44:11.853Z,12.28
2022-09-23T12:46:49.106Z,12.30
2022-09-23T12:49:38.321Z,12.33
2022-09-23T12:52:12.045Z,12.36
2022-09-23T12:54:43.804Z,12.39
2022-09-23T12:57:34.041Z,12.40
2022-09-23T13:00:14.019Z,12.40
2022-09-23T13:03:12.304Z,12.41
2022-09-23T13:06:20.861Z,12.44
2022-09-23T13:08:50.528Z,12.48
2022-09-23T13:11:30.661Z,12.52
2022-09-23T13:14:05.093Z,12.54
2022-09-23T13:16:46.585Z,12.57
2022-09-23T13:19:28.561Z,12.62
2022-09-23T13:22:09.737Z,12.69
2022-09-23T13:24:46.642Z,12.75
2022-09-23T13:27:34.892Z,12.84
2022-09-23T13:30:25.726Z,12.96
2022-09-23T13:33:21.624Z,13.09
2022-09-23T13:35:56.788Z,13.22
2022-09-23T13:38:29.986Z,13.29
2022-09-23T13:41:29.405Z,13.33
2022-09-23T13:44:00.347Z,13.37
2022-09-23T13:46:30.653Z,13.43
2022-09-23T13:48:59.424Z,13.45
2022-09-23T13:51:32.988Z,13.43
2022-09-23T13:54:05.153Z,13.47
2022-09-23T13:56:36.633Z,13.52
2022-09-23T13:59:30.760Z,13.60
2022-09-23T14:02:26.645Z,13.69
2022-09-23T14:04:59.195Z,13.77
2022-09-23T14:07:28.547Z,13.85
2022-09-23T14:09:57.057Z,13.94
2022-09-23T14:12:25.832Z,14.00
2022-09-23T14:14:54.330Z,14.05
2022-09-23T14:17:23.578Z,14.11
2022-09-23T14:19:52.362Z,14.18
2022-09-23T14:22:29.571Z,14.24
2022-09-23T14:24:59.407Z,14.32
2022-09-23T14:27:33.834Z,14.37
2022-09-23T14:30:04.139Z,14.40
2022-09-23T14:32:33.850Z,14.42
2022-09-23T14:35:05.714Z,14.46
2022-09-23T14:37:56.458Z,14.49
2022-09-23T14:40:31.456Z,14.47
2022-09-23T14:43:04.995Z,14.40
2022-09-23T14:45:37.986Z,14.34
2022-09-23T14:48:06.757Z,14.25
2022-09-23T14:50:37.021Z,14.17
2022-09-23T14:53:26.930Z,14.08
2022-09-23T14:56:06.707Z,14.05
2022-09-23T14:58:59.762Z,13.99
2022-09-23T15:01:32.148Z,13.90
2022-09-23T15:04:18.279Z,13.81
2022-09-23T15:06:59.113Z,13.74
2022-09-23T15:09:31.616Z,13.68
2022-09-23T15:12:05.664Z,13.63
2022-09-23T15:14:47.057Z,13.60
2022-09-23T15:17:30.640Z,13.54
2022-09-23T15:20:21.131Z,13.49
2022-09-23T15:22:55.002Z,13.45
2022-09-23T15:25:32.968Z,13.41
2022-09-23T15:28:10.515Z,13.36
2022-09-23T15:30:40.690Z,13.32
2022-09-23T15:33:15.151Z,13.29
2022-09-23T15:35:50.038Z,13.26
2022-09-23T15:38:18.862Z,13.24
2022-09-23T15:40:47.588Z,13.22
2022-09-23T15:43:21.499Z,13.21
2022-09-23T15:45:57.771Z,13.18
2022-09-23T15:48:37.915Z,13.15
2022-09-23T15:51:10.529Z,13.11
2022-09-23T15:53:39.214Z,13.09
2022-09-23T15:56:06.910Z,13.07
2022-09-23T15:58:34.670Z,13.05
2022-09-23T16:01:05.962Z,13.02
2022-09-23T16:03:33.977Z,12.98
2022-09-23T16:06:03.830Z,12.93
2022-09-23T16:08:33.800Z,12.88
2022-09-23T16:11:02.549Z,12.83
2022-09-23T16:13:31.373Z,12.77
2022-09-23T16:15:59.943Z,12.72
2022-09-23T16:18:29.338Z,12.67
2022-09-23T16:20:59.987Z,12.62
2022-09-23T16:23:40.859Z,12.56
2022-09-23T16:26:34.778Z,12.49
2022-09-23T16:29:02.557Z,12.41
2022-09-23T16:31:31.882Z,12.33
2022-09-23T16:34:03.041Z,12.26
2022-09-23T16:36:35.722Z,12.20
2022-09-23T16:39:07.757Z,12.11
2022-09-23T16:41:37.821Z,12.00
2022-09-23T16:44:10.007Z,11.93
2022-09-23T16:46:41.091Z,11.86
2022-09-23T16:49:12.758Z,11.77
2022-09-23T16:51:41.669Z,11.68
2022-09-23T16:54:13.504Z,11.61
2022-09-23T16:56:45.777Z,11.55
2022-09-23T16:59:16.145Z,11.48
2022-09-23T17:02:03.439Z,11.41
2022-09-23T17:04:33.369Z,11.35
2022-09-23T17:07:02.954Z,11.27
2022-09-23T17:09:32.835Z,11.21
2022-09-23T17:12:24.242Z,11.15
2022-09-23T17:14:54.011Z,11.09
2022-09-23T17:17:23.195Z,11.05
2022-09-23T17:19:51.116Z,11.00
2022-09-23T17:22:19.115Z,10.96
2022-09-23T17:24:47.551Z,10.91
2022-09-23T17:27:18.205Z,10.84
2022-09-23T17:29:46.887Z,10.77
2022-09-23T17:32:14.826Z,10.71
2022-09-23T17:34:45.613Z,10.65
2022-09-23T17:37:13.363Z,10.59
2022-09-23T17:39:43.505Z,10.54
2022-09-23T17:42:12.044Z,10.49
2022-09-23T17:44:39.882Z,10.44
2022-09-23T17:47:09.398Z,10.40
2022-09-23T17:49:38.085Z,10.36
2022-09-23T17:52:06.519Z,10.31
2022-09-23T17:54:37.226Z,10.26
2022-09-23T17:57:05.086Z,10.21
2022-09-23T17:59:33.894Z,10.17
2022-09-23T18:02:02.305Z,10.11
2022-09-23T18:04:32.182Z,10.07
2022-09-23T18:07:00.799Z,10.04
2022-09-23T18:09:30.417Z,10.00
2022-09-23T18:11:58.488Z,9.98
2022-09-23T18:14:26.533Z,9.97
2022-09-23T18:16:55.985Z,9.96
2022-09-23T18:19:26.759Z,9.96
2022-09-23T18:21:57.433Z,9.95
2022-09-23T18:24:33.885Z,9.92
2022-09-23T18:27:06.640Z,9.92
2022-09-23T18:29:35.608Z,9.87
2022-09-23T18:32:04.623Z,9.85
2022-09-23T18:34:34.324Z,9.83
2022-09-23T18:37:02.962Z,9.79
2022-09-23T18:39:31.712Z,9.75
2022-09-23T18:42:02.057Z,9.70
2022-09-23T18:44:32.649Z,9.63
2022-09-23T18:47:01.422Z,9.60
2022-09-23T18:50:09.355Z,9.58
2022-09-23T18:52:38.645Z,9.55
2022-09-23T18:55:07.052Z,9.48
2022-09-23T18:57:35.756Z,9.44
2022-09-23T19:00:06.567Z,9.41
2022-09-23T19:02:37.170Z,9.37
2022-09-23T19:05:06.489Z,9.34
2022-09-23T19:07:34.484Z,9.32
2022-09-23T19:10:03.849Z,9.30
2022-09-23T19:12:33.222Z,9.28
2022-09-23T19:15:01.274Z,9.27
2022-09-23T19:17:30.149Z,9.27
2022-09-23T19:19:59.675Z,9.27
2022-09-23T19:22:31.504Z,9.27
2022-09-23T19:24:59.473Z,9.25
2022-09-23T19:27:28.136Z,9.20
2022-09-23T19:29:56.980Z,9.14
2022-09-23T19:32:27.439Z,9.10
2022-09-23T19:34:59.497Z,9.04
2022-09-23T19:37:28.416Z,8.99
2022-09-23T19:39:57.997Z,8.92
2022-09-23T19:42:29.310Z,8.89
2022-09-23T19:44:57.477Z,8.84
2022-09-23T19:47:25.438Z,8.79
2022-09-23T19:49:55.100Z,8.73
2022-09-23T19:52:25.524Z,8.70
2022-09-23T19:54:53.886Z,8.64
2022-09-23T19:57:23.983Z,8.59
2022-09-23T19:59:52.728Z,8.55
2022-09-23T20:02:21.613Z,8.52
2022-09-23T20:04:53.003Z,8.47
2022-09-23T20:07:23.848Z,8.42
2022-09-23T20:09:52.486Z,8.35
2022-09-23T20:12:21.158Z,8.30
2022-09-23T20:14:49.995Z,8.24
2022-09-23T20:17:19.789Z,8.19
2022-09-23T20:19:48.553Z,8.13
2022-09-23T20:22:28.527Z,8.10
2022-09-23T20:25:03.133Z,8.07
2022-09-23T20:27:32.706Z,8.02
2022-09-23T20:30:03.714Z,7.99
2022-09-23T20:32:37.793Z,7.96
2022-09-23T20:35:08.857Z,7.96
2022-09-23T20:37:38.012Z,7.97
2022-09-23T20:40:09.188Z,7.99
2022-09-23T20:42:37.158Z,8.00
2022-09-23T20:45:07.838Z,7.99
2022-09-23T20:47:35.800Z,8.00
2022-09-23T20:50:05.845Z,8.01
2022-09-23T20:52:36.406Z,8.02
2022-09-23T20:55:06.590Z,8.04
2022-09-23T20:57:34.978Z,8.05
2022-09-23T21:00:07.715Z,8.08
2022-09-23T21:02:38.373Z,8.09
2022-09-23T21:05:09.353Z,8.10
2022-09-23T21:07:37.719Z,8.09
2022-09-23T21:10:08.701Z,8.09
2022-09-23T21:12:36.554Z,8.09
2022-09-23T21:15:07.651Z,8.02
2022-09-23T21:17:37.510Z,7.94
2022-09-23T21:20:07.285Z,7.88
2022-09-23T21:22:37.158Z,7.89
2022-09-23T21:27:55.605Z,7.94
2022-09-23T21:30:25.672Z,7.97
2022-09-23T21:32:53.672Z,8.00
2022-09-23T21:35:22.113Z,8.01
2022-09-23T21:37:51.952Z,8.02
2022-09-23T21:40:38.745Z,8.05
2022-09-23T21:43:09.970Z,8.06
2022-09-23T21:45:40.088Z,8.07
2022-09-23T21:48:08.361Z,8.10
2022-09-23T21:50:42.952Z,8.07
2022-09-23T21:53:10.837Z,8.00
2022-09-23T21:55:39.976Z,7.93
2022-09-23T21:58:07.638Z,7.88
2022-09-23T22:00:35.706Z,7.87
2022-09-23T22:03:05.320Z,7.88
2022-09-23T22:05:33.694Z,7.86
2022-09-23T22:08:01.629Z,7.82
2022-09-23T22:10:29.315Z,7.78
2022-09-23T22:12:59.251Z,7.78
2022-09-23T22:15:27.873Z,7.80
2022-09-23T22:17:55.817Z,7.77
2022-09-23T22:20:26.262Z,7.70
2022-09-23T22:22:57.448Z,7.66
2022-09-23T22:25:26.186Z,7.66
2022-09-23T22:28:12.573Z,7.64
2022-09-23T22:31:22.590Z,7.63
2022-09-23T22:33:55.255Z,7.65
2022-09-23T22:36:24.177Z,7.67
2022-09-23T22:38:59.294Z,7.69
2022-09-23T22:41:29.978Z,7.70
2022-09-23T22:44:03.716Z,7.70
2022-09-23T22:46:34.923Z,7.65
2022-09-23T22:49:05.026Z,7.52
2022-09-23T22:51:35.825Z,7.44
2022-09-23T22:54:09.271Z,7.42
2022-09-23T22:56:40.114Z,7.44
2022-09-23T22:59:12.637Z,7.47
2022-09-23T23:01:40.960Z,7.50
2022-09-23T23:04:12.743Z,7.54
2022-09-23T23:06:44.479Z,7.55
2022-09-23T23:09:18.717Z,7.51
2022-09-23T23:11:48.355Z,7.42
2022-09-23T23:14:20.870Z,7.33
2022-09-23T23:16:48.899Z,7.32
2022-09-23T23:19:19.851Z,7.36
2022-09-23T23:21:51.031Z,7.41
2022-09-23T23:24:24.734Z,7.44
2022-09-23T23:26:55.673Z,7.49
2022-09-23T23:29:26.358Z,7.53
2022-09-23T23:31:55.090Z,7.54
2022-09-23T23:34:28.282Z,7.54
2022-09-23T23:36:57.382Z,7.51
2022-09-23T23:39:26.369Z,7.49
2022-09-23T23:41:57.531Z,7.53
2022-09-23T23:44:28.622Z,7.57
2022-09-23T23:46:56.602Z,7.59
2022-09-23T23:49:28.277Z,7.58
2022-09-23T23:51:58.838Z,7.52
2022-09-23T23:54:26.853Z,7.48
2022-09-23T23:56:54.553Z,7.47
2022-09-23T23:59:22.456Z,7.49
